createdAt,value
2019-05-10T00:04:26.041Z,12.30
2019-05-10T00:09:30.648Z,12.17
2019-05-10T00:14:46.673Z,12.06
2019-05-10T00:19:51.991Z,12.15
2019-05-10T00:25:03.858Z,12.02
2019-05-10T00:30:07.238Z,11.97
2019-05-10T00:35:12.878Z,12.17
2019-05-10T00:40:18.488Z,12.08
2019-05-10T00:45:23.974Z,12.13
2019-05-10T00:50:30.530Z,12.05
2019-05-10T00:55:35.919Z,12.02
2019-05-10T01:00:41.759Z,11.98
2019-05-10T01:05:47.113Z,12.02
2019-05-10T01:10:52.429Z,11.86
2019-05-10T01:15:58.246Z,11.94
2019-05-10T01:21:03.817Z,11.86
2019-05-10T01:26:09.095Z,11.84
2019-05-10T01:31:15.020Z,11.86
2019-05-10T01:36:23.677Z,11.84
2019-05-10T01:41:29.060Z,11.84
2019-05-10T01:46:34.796Z,11.63
2019-05-10T01:51:40.260Z,11.65
2019-05-10T01:56:45.434Z,11.63
2019-05-10T02:01:51.134Z,11.61
2019-05-10T02:06:56.288Z,11.45
2019-05-10T02:12:01.555Z,11.56
2019-05-10T02:17:07.041Z,11.45
2019-05-10T02:22:12.383Z,11.58
2019-05-10T02:27:17.520Z,11.47
2019-05-10T02:32:23.037Z,11.44
2019-05-10T02:37:29.576Z,11.46
2019-05-10T02:42:36.128Z,11.47
2019-05-10T02:47:41.850Z,11.50
2019-05-10T02:52:47.271Z,11.55
2019-05-10T02:57:54.972Z,11.63
2019-05-10T03:03:01.128Z,11.63
2019-05-10T03:08:06.700Z,11.71
2019-05-10T03:13:15.224Z,11.69
2019-05-10T03:18:23.819Z,11.69
2019-05-10T03:23:30.072Z,11.70
2019-05-10T03:28:35.368Z,11.71
2019-05-10T03:33:40.826Z,11.70
2019-05-10T03:38:46.826Z,11.80
2019-05-10T03:43:52.290Z,11.82
2019-05-10T03:48:58.053Z,12.04
2019-05-10T03:54:03.225Z,12.06
2019-05-10T03:59:08.386Z,12.27
2019-05-10T04:04:13.829Z,12.23
2019-05-10T04:09:20.314Z,12.22
2019-05-10T04:14:25.667Z,12.39
2019-05-10T04:19:31.531Z,12.39
2019-05-10T04:24:36.995Z,12.41
2019-05-10T04:29:42.478Z,12.56
2019-05-10T04:34:48.339Z,12.52
2019-05-10T04:39:53.513Z,12.35
2019-05-10T04:44:58.735Z,12.26
2019-05-10T04:50:05.103Z,12.27
2019-05-10T04:55:10.537Z,12.28
2019-05-10T05:00:16.324Z,12.43
2019-05-10T05:05:21.907Z,12.46
2019-05-10T05:10:27.378Z,12.58
2019-05-10T05:15:32.751Z,12.74
2019-05-10T05:20:39.420Z,12.73
2019-05-10T05:25:44.814Z,12.73
2019-05-10T05:30:49.955Z,12.63
2019-05-10T05:35:55.529Z,12.58
2019-05-10T05:41:00.988Z,12.59
2019-05-10T05:46:06.234Z,12.75
2019-05-10T05:51:11.652Z,12.58
2019-05-10T05:56:16.791Z,12.55
2019-05-10T06:01:26.022Z,12.49
2019-05-10T06:06:29.299Z,12.64
2019-05-10T06:11:35.938Z,12.60
2019-05-10T06:16:45.286Z,12.68
2019-05-10T06:21:49.179Z,12.79
2019-05-10T06:26:58.309Z,12.97
2019-05-10T06:32:02.169Z,13.10
2019-05-10T06:37:08.650Z,13.05
2019-05-10T06:42:14.088Z,12.96
2019-05-10T06:47:21.805Z,12.77
2019-05-10T06:52:28.051Z,12.85
2019-05-10T06:57:33.639Z,12.91
2019-05-10T07:02:38.800Z,12.73
2019-05-10T07:07:45.365Z,12.85
2019-05-10T07:12:50.932Z,12.83
2019-05-10T07:17:56.410Z,12.99
2019-05-10T07:23:06.312Z,13.04
2019-05-10T07:28:09.497Z,13.25
2019-05-10T07:33:15.663Z,13.35
2019-05-10T07:38:23.506Z,13.46
2019-05-10T07:43:29.286Z,13.41
2019-05-10T07:48:40.847Z,13.95
2019-05-10T07:53:42.830Z,13.94
2019-05-10T07:58:48.140Z,13.63
2019-05-10T08:03:53.357Z,13.75
2019-05-10T08:09:01.840Z,13.99
2019-05-10T08:14:10.917Z,14.10
2019-05-10T08:19:13.660Z,14.50
2019-05-10T08:24:18.828Z,14.94
2019-05-10T08:29:24.034Z,15.00
2019-05-10T08:34:35.580Z,14.89
2019-05-10T08:39:45.634Z,14.99
2019-05-10T08:44:45.126Z,15.19
2019-05-10T08:50:08.105Z,15.54
2019-05-10T08:54:57.768Z,15.03
2019-05-10T09:00:08.764Z,15.03
2019-05-10T09:05:12.440Z,15.33
2019-05-10T09:10:18.999Z,15.36
2019-05-10T09:15:25.089Z,15.34
2019-05-10T09:20:31.952Z,15.18
2019-05-10T09:31:15.327Z,15.27
2019-05-10T09:36:06.571Z,15.58
2019-05-10T09:41:11.922Z,16.34
2019-05-10T09:46:17.938Z,16.93
2019-05-10T09:51:27.931Z,16.89
2019-05-10T09:56:33.056Z,16.71
2019-05-10T10:01:37.976Z,16.74
2019-05-10T10:06:48.082Z,17.14
2019-05-10T10:11:58.115Z,17.99
2019-05-10T10:17:02.204Z,18.10
2019-05-10T10:22:05.634Z,18.48
2019-05-10T10:27:11.948Z,19.17
2019-05-10T10:32:17.615Z,19.47
2019-05-10T10:37:28.279Z,19.79
2019-05-10T10:42:30.156Z,19.80
2019-05-10T10:58:31.564Z,19.46
2019-05-10T11:03:37.385Z,19.56
2019-05-10T11:08:42.721Z,19.13
2019-05-10T11:13:57.948Z,18.93
2019-05-10T11:18:54.878Z,19.38
2019-05-10T11:24:01.670Z,19.65
2019-05-10T11:29:07.108Z,19.58
2019-05-10T11:34:13.523Z,19.14
2019-05-10T11:39:25.979Z,18.83
2019-05-10T11:44:26.090Z,19.13
2019-05-10T11:49:31.533Z,19.15
2019-05-10T11:54:37.089Z,19.14
2019-05-10T11:59:43.074Z,19.23
2019-05-10T12:04:48.478Z,19.41
2019-05-10T12:10:03.455Z,19.44
2019-05-10T12:15:04.271Z,18.42
2019-05-10T12:20:12.564Z,18.47
2019-05-10T12:25:36.372Z,18.57
2019-05-10T12:30:24.033Z,18.67
2019-05-10T12:35:35.643Z,19.04
2019-05-10T12:40:36.920Z,19.28
2019-05-10T12:45:42.280Z,19.46
2019-05-10T12:50:47.446Z,18.49
2019-05-10T12:55:53.079Z,18.06
2019-05-10T13:00:59.206Z,17.79
2019-05-10T13:06:04.627Z,17.71
2019-05-10T13:11:09.835Z,17.85
2019-05-10T13:16:15.433Z,17.51
2019-05-10T13:21:22.955Z,17.36
2019-05-10T13:26:27.664Z,17.79
2019-05-10T13:31:42.089Z,17.64
2019-05-10T13:36:40.256Z,17.47
2019-05-10T13:41:45.837Z,17.86
2019-05-10T13:46:51.583Z,18.16
2019-05-10T13:51:56.945Z,18.94
2019-05-10T13:57:02.302Z,20.88
2019-05-10T14:02:07.981Z,21.75
2019-05-10T14:07:13.460Z,22.75
2019-05-10T14:12:23.193Z,23.39
2019-05-10T14:17:26.037Z,22.44
2019-05-10T14:22:31.465Z,22.16
2019-05-10T14:27:38.608Z,21.61
2019-05-10T14:32:44.318Z,21.75
2019-05-10T14:37:49.674Z,23.45
2019-05-10T14:42:55.449Z,22.67
2019-05-10T14:48:01.019Z,22.51
2019-05-10T14:53:06.338Z,22.91
2019-05-10T14:58:11.674Z,23.18
2019-05-10T15:03:17.397Z,23.33
2019-05-10T15:08:22.845Z,22.23
2019-05-10T15:13:28.330Z,22.19
2019-05-10T15:18:34.179Z,22.99
2019-05-10T15:23:40.768Z,22.69
2019-05-10T15:28:46.095Z,22.60
2019-05-10T15:33:51.717Z,21.47
2019-05-10T15:38:57.868Z,20.88
2019-05-10T15:44:03.297Z,20.95
2019-05-10T15:49:13.577Z,21.13
2019-05-10T15:54:16.093Z,20.02
2019-05-10T15:59:21.460Z,20.51
2019-05-10T16:04:26.817Z,20.47
2019-05-10T16:09:31.896Z,21.20
2019-05-10T16:14:39.227Z,20.52
2019-05-10T16:19:44.292Z,19.24
2019-05-10T16:24:49.702Z,17.93
2019-05-10T16:29:54.902Z,17.74
2019-05-10T16:35:05.850Z,17.25
2019-05-10T16:40:08.944Z,16.78
2019-05-10T16:45:15.119Z,16.78
2019-05-10T16:50:26.145Z,16.71
2019-05-10T16:55:27.993Z,16.12
2019-05-10T17:00:33.447Z,16.18
2019-05-10T17:05:51.643Z,16.33
2019-05-10T17:10:45.716Z,16.28
2019-05-10T17:15:51.138Z,16.13
2019-05-10T17:20:56.609Z,15.65
2019-05-10T17:26:02.401Z,15.60
2019-05-10T17:31:09.558Z,15.36
2019-05-10T17:36:19.893Z,15.26
2019-05-10T17:41:24.921Z,15.20
2019-05-10T17:46:28.837Z,14.76
2019-05-10T17:51:34.306Z,14.46
2019-05-10T17:56:40.662Z,14.36
2019-05-10T18:01:46.011Z,14.33
2019-05-10T18:06:51.614Z,14.25
2019-05-10T18:11:56.945Z,14.12
2019-05-10T18:17:02.353Z,14.00
2019-05-10T18:22:08.210Z,13.94
2019-05-10T18:27:13.528Z,14.10
2019-05-10T18:32:19.031Z,14.10
2019-05-10T18:37:24.790Z,14.16
2019-05-10T18:42:30.141Z,14.17
2019-05-10T18:47:35.616Z,13.81
2019-05-10T18:52:42.009Z,13.70
2019-05-10T18:57:50.785Z,14.11
2019-05-10T19:02:57.027Z,14.25
2019-05-10T19:08:05.562Z,14.42
2019-05-10T19:13:11.429Z,14.53
2019-05-10T19:18:17.813Z,14.57
2019-05-10T19:23:24.492Z,14.71
2019-05-10T19:28:30.059Z,14.70
2019-05-10T19:33:36.938Z,14.68
2019-05-10T19:38:43.129Z,14.92
2019-05-10T19:43:50.064Z,14.87
2019-05-10T19:48:55.538Z,14.91
2019-05-10T19:54:01.046Z,14.68
2019-05-10T19:59:11.562Z,14.31
2019-05-10T20:04:13.445Z,14.12
2019-05-10T20:09:18.726Z,14.04
2019-05-10T20:14:24.134Z,14.07
2019-05-10T20:19:30.748Z,14.06
2019-05-10T20:24:37.194Z,13.93
2019-05-10T20:29:42.552Z,13.94
2019-05-10T20:34:47.932Z,14.00
2019-05-10T20:39:53.598Z,13.95
2019-05-10T20:45:07.332Z,13.79
2019-05-10T20:50:06.912Z,13.86
2019-05-10T20:55:12.919Z,13.86
2019-05-10T21:00:18.713Z,13.68
2019-05-10T21:05:23.973Z,13.57
2019-05-10T21:10:29.410Z,13.60
2019-05-10T21:15:34.885Z,13.27
2019-05-10T21:20:40.443Z,13.49
2019-05-10T21:25:46.107Z,13.46
2019-05-10T21:30:53.630Z,13.19
2019-05-10T21:35:59.278Z,13.29
2019-05-10T21:41:05.287Z,13.33
2019-05-10T21:46:10.602Z,13.25
2019-05-10T21:51:15.969Z,13.16
2019-05-10T21:56:21.531Z,13.06
2019-05-10T22:01:26.791Z,13.07
2019-05-10T22:06:32.167Z,12.99
2019-05-10T22:11:38.020Z,13.06
2019-05-10T22:16:43.582Z,12.94
2019-05-10T22:21:48.867Z,12.87
2019-05-10T22:26:54.188Z,12.82
2019-05-10T22:31:59.470Z,12.71
2019-05-10T22:37:05.118Z,12.72
2019-05-10T22:42:10.892Z,12.56
2019-05-10T22:47:17.173Z,12.46
2019-05-10T22:52:22.287Z,12.38
2019-05-10T22:57:27.509Z,12.48
2019-05-10T23:02:32.774Z,12.37
2019-05-10T23:07:38.206Z,12.49
2019-05-10T23:12:43.754Z,12.36
2019-05-10T23:17:49.113Z,12.28
2019-05-10T23:22:54.442Z,12.29
2019-05-10T23:27:59.841Z,12.31
2019-05-10T23:33:05.300Z,12.28
2019-05-10T23:38:10.509Z,12.12
2019-05-10T23:43:15.933Z,12.09
2019-05-10T23:48:22.304Z,12.01
2019-05-10T23:53:27.961Z,11.91
2019-05-10T23:58:33.731Z,11.89
